createdAt,value
2019-02-28T00:02:11.255Z,5.30
2019-02-28T00:04:41.084Z,5.30
2019-02-28T00:07:10.884Z,5.20
2019-02-28T00:09:40.701Z,5.20
2019-02-28T00:12:13.522Z,5.20
2019-02-28T00:14:42.976Z,5.20
2019-02-28T00:17:12.797Z,5.20
2019-02-28T00:19:42.600Z,5.30
2019-02-28T00:22:14.702Z,5.30
2019-02-28T00:24:43.573Z,5.30
2019-02-28T00:27:13.367Z,5.30
2019-02-28T00:29:43.190Z,5.30
2019-02-28T00:32:13.078Z,5.30
2019-02-28T00:34:42.909Z,5.30
2019-02-28T00:37:12.713Z,5.30
2019-02-28T00:39:42.481Z,5.30
2019-02-28T00:42:17.185Z,5.30
2019-02-28T00:44:43.905Z,5.30
2019-02-28T00:47:16.446Z,5.30
2019-02-28T00:49:44.700Z,5.30
2019-02-28T00:52:14.284Z,5.40
2019-02-28T00:54:44.511Z,5.30
2019-02-28T00:57:14.512Z,5.40
2019-02-28T00:59:44.053Z,5.40
2019-02-28T01:02:22.937Z,5.30
2019-02-28T01:04:52.829Z,5.20
2019-02-28T01:07:22.475Z,5.20
2019-02-28T01:09:52.281Z,5.10
2019-02-28T01:12:22.300Z,5.00
2019-02-28T01:14:52.125Z,5.00
2019-02-28T01:17:24.045Z,4.90
2019-02-28T01:19:53.212Z,4.80
2019-02-28T01:22:23.037Z,4.80
2019-02-28T01:24:52.848Z,4.70
2019-02-28T01:27:23.788Z,4.60
2019-02-28T01:29:53.902Z,4.60
2019-02-28T01:32:23.465Z,4.60
2019-02-28T01:34:53.007Z,4.60
2019-02-28T01:37:22.556Z,4.50
2019-02-28T01:39:52.111Z,4.50
2019-02-28T01:42:21.664Z,4.40
2019-02-28T01:44:51.484Z,4.40
2019-02-28T01:47:21.358Z,4.40
2019-02-28T01:49:51.167Z,4.40
2019-02-28T01:52:20.711Z,4.40
2019-02-28T01:54:52.254Z,4.40
2019-02-28T01:57:21.808Z,4.40
2019-02-28T01:59:52.934Z,4.40
2019-02-28T02:02:23.184Z,4.30
2019-02-28T02:04:52.996Z,4.30
2019-02-28T02:07:23.018Z,4.30
2019-02-28T02:09:52.839Z,4.30
2019-02-28T02:12:22.737Z,4.30
2019-02-28T02:14:52.599Z,4.30
2019-02-28T02:17:22.449Z,4.20
2019-02-28T02:19:52.322Z,4.30
2019-02-28T02:22:22.421Z,4.20
2019-02-28T02:24:56.077Z,4.20
2019-02-28T02:27:25.624Z,4.10
2019-02-28T02:29:55.176Z,4.10
2019-02-28T02:32:24.838Z,4.10
2019-02-28T02:34:54.636Z,4.10
2019-02-28T02:37:26.469Z,4.10
2019-02-28T02:39:56.030Z,4.10
2019-02-28T02:42:25.586Z,4.00
2019-02-28T02:45:03.677Z,4.00
2019-02-28T02:47:32.378Z,4.00
2019-02-28T02:50:02.297Z,4.00
2019-02-28T02:52:32.126Z,4.00
2019-02-28T02:55:01.918Z,4.00
2019-02-28T02:57:31.457Z,3.90
2019-02-28T03:00:01.105Z,3.90
2019-02-28T03:02:33.222Z,3.90
2019-02-28T03:05:02.526Z,3.90
2019-02-28T03:07:32.069Z,3.90
2019-02-28T03:10:06.124Z,3.90
2019-02-28T03:12:35.669Z,3.90
2019-02-28T03:15:05.946Z,4.00
2019-02-28T03:17:35.746Z,3.90
2019-02-28T03:20:07.550Z,3.80
2019-02-28T03:22:37.621Z,3.70
2019-02-28T03:25:08.180Z,3.70
2019-02-28T03:27:38.064Z,3.70
2019-02-28T03:30:09.974Z,3.70
2019-02-28T03:33:01.606Z,3.70
2019-02-28T03:35:40.118Z,3.60
2019-02-28T03:38:10.520Z,3.60
2019-02-28T03:40:39.807Z,3.60
2019-02-28T03:43:06.776Z,3.50
2019-02-28T03:45:36.821Z,3.50
2019-02-28T03:48:06.546Z,3.50
2019-02-28T03:50:36.101Z,3.60
2019-02-28T03:53:08.832Z,3.50
2019-02-28T03:55:40.679Z,3.50
2019-02-28T03:58:09.877Z,3.50
2019-02-28T04:00:39.574Z,3.50
2019-02-28T04:03:09.517Z,3.50
2019-02-28T04:05:39.223Z,3.50
2019-02-28T04:08:08.779Z,3.50
2019-02-28T04:10:44.341Z,3.50
2019-02-28T04:13:13.884Z,3.50
2019-02-28T04:16:01.510Z,3.50
2019-02-28T04:18:14.774Z,3.50
2019-02-28T04:20:44.945Z,3.50
2019-02-28T04:23:14.761Z,3.50
2019-02-28T04:25:44.345Z,3.50
2019-02-28T04:28:18.636Z,3.40
2019-02-28T04:30:51.498Z,3.40
2019-02-28T04:33:21.542Z,3.30
2019-02-28T04:35:51.391Z,3.40
2019-02-28T04:38:21.526Z,3.30
2019-02-28T04:40:51.063Z,3.30
2019-02-28T04:43:20.947Z,3.30
2019-02-28T04:45:50.557Z,3.20
2019-02-28T04:48:20.350Z,3.20
2019-02-28T04:50:50.028Z,3.20
2019-02-28T04:53:20.112Z,3.10
2019-02-28T04:55:49.828Z,3.10
2019-02-28T04:58:22.416Z,3.10
2019-02-28T05:00:51.329Z,3.10
2019-02-28T05:03:21.260Z,3.00
2019-02-28T05:05:50.817Z,3.00
2019-02-28T05:08:20.368Z,3.00
2019-02-28T05:10:49.938Z,3.00
2019-02-28T05:13:20.400Z,2.90
2019-02-28T05:15:49.972Z,2.90
2019-02-28T05:18:19.833Z,2.90
2019-02-28T05:20:49.369Z,3.00
2019-02-28T05:23:18.931Z,2.90
2019-02-28T05:25:49.147Z,3.00
2019-02-28T05:28:20.096Z,3.00
2019-02-28T05:31:24.163Z,2.90
2019-02-28T05:33:54.050Z,2.90
2019-02-28T05:36:23.996Z,2.90
2019-02-28T05:38:56.489Z,2.80
2019-02-28T05:41:24.805Z,2.80
2019-02-28T05:43:55.269Z,2.80
2019-02-28T05:46:24.929Z,2.70
2019-02-28T05:48:54.490Z,2.70
2019-02-28T05:51:24.892Z,2.70
2019-02-28T05:53:55.278Z,2.70
2019-02-28T05:56:34.081Z,2.80
2019-02-28T05:59:04.056Z,2.70
2019-02-28T06:01:33.849Z,2.80
2019-02-28T06:04:04.027Z,2.70
2019-02-28T06:06:33.743Z,2.70
2019-02-28T06:09:04.364Z,2.70
2019-02-28T06:11:35.565Z,2.70
2019-02-28T06:14:05.401Z,2.70
2019-02-28T06:16:35.340Z,2.70
2019-02-28T06:19:08.294Z,2.70
2019-02-28T06:21:36.407Z,2.70
2019-02-28T06:24:06.048Z,2.70
2019-02-28T06:26:36.237Z,2.60
2019-02-28T06:29:05.966Z,2.50
2019-02-28T06:31:35.724Z,2.60
2019-02-28T06:34:05.710Z,2.60
2019-02-28T06:36:36.813Z,2.70
2019-02-28T06:39:07.709Z,2.70
2019-02-28T06:41:39.888Z,2.70
2019-02-28T06:44:08.544Z,2.70
2019-02-28T06:46:39.808Z,2.70
2019-02-28T06:49:09.771Z,2.70
2019-02-28T06:51:39.972Z,2.70
2019-02-28T06:54:09.572Z,2.70
2019-02-28T06:56:39.412Z,2.80
2019-02-28T06:59:16.368Z,2.80
2019-02-28T07:01:47.508Z,2.80
2019-02-28T07:04:17.321Z,2.90
2019-02-28T07:06:54.400Z,2.90
2019-02-28T07:09:24.521Z,2.90
2019-02-28T07:11:54.716Z,3.00
2019-02-28T07:14:25.576Z,3.00
2019-02-28T07:16:55.799Z,3.00
2019-02-28T07:19:26.281Z,3.00
2019-02-28T07:21:57.268Z,3.00
2019-02-28T07:24:27.371Z,3.00
2019-02-28T07:26:57.364Z,3.00
2019-02-28T07:29:27.627Z,3.10
2019-02-28T07:32:01.234Z,3.10
2019-02-28T07:34:29.755Z,3.20
2019-02-28T07:36:59.612Z,3.20
2019-02-28T07:39:30.005Z,3.20
2019-02-28T07:42:02.224Z,3.30
2019-02-28T07:44:31.228Z,3.30
2019-02-28T07:47:00.792Z,3.40
2019-02-28T07:49:35.858Z,3.40
2019-02-28T07:52:02.001Z,3.40
2019-02-28T07:54:31.561Z,3.50
2019-02-28T07:57:01.200Z,3.50
2019-02-28T07:59:30.779Z,3.60
2019-02-28T08:02:03.254Z,3.70
2019-02-28T08:04:44.006Z,3.80
2019-02-28T08:07:14.736Z,3.90
2019-02-28T08:09:44.997Z,4.00
2019-02-28T08:12:14.593Z,4.10
2019-02-28T08:14:47.110Z,4.20
2019-02-28T08:17:24.863Z,4.30
2019-02-28T08:20:02.043Z,4.40
2019-02-28T08:22:32.463Z,4.50
2019-02-28T08:25:02.394Z,4.60
2019-02-28T08:27:32.284Z,4.70
2019-02-28T08:30:02.500Z,4.80
2019-02-28T08:32:33.842Z,4.90
2019-02-28T08:35:03.997Z,5.00
2019-02-28T08:37:33.810Z,5.10
2019-02-28T08:40:04.408Z,5.20
2019-02-28T08:42:38.592Z,5.20
2019-02-28T08:45:07.136Z,5.30
2019-02-28T08:47:37.125Z,5.40
2019-02-28T08:50:10.541Z,5.50
2019-02-28T08:52:41.010Z,5.50
2019-02-28T08:55:13.661Z,5.60
2019-02-28T08:57:43.836Z,5.70
2019-02-28T09:00:32.812Z,5.70
2019-02-28T09:03:00.858Z,5.80
2019-02-28T09:05:31.062Z,5.90
2019-02-28T09:08:16.731Z,5.90
2019-02-28T09:10:47.004Z,6.00
2019-02-28T09:13:17.328Z,6.10
2019-02-28T09:15:47.333Z,6.20
2019-02-28T09:18:17.795Z,6.20
2019-02-28T09:20:49.004Z,6.30
2019-02-28T09:23:18.770Z,6.40
2019-02-28T09:25:48.392Z,6.40
2019-02-28T09:28:18.232Z,6.50
2019-02-28T09:30:48.401Z,6.60
2019-02-28T09:33:19.389Z,6.70
2019-02-28T09:35:51.044Z,6.70
2019-02-28T09:38:20.856Z,6.80
2019-02-28T09:40:50.408Z,6.90
2019-02-28T09:43:19.956Z,7.00
2019-02-28T09:46:09.101Z,7.10
2019-02-28T09:48:39.454Z,7.20
2019-02-28T09:51:09.055Z,7.40
2019-02-28T09:53:38.602Z,7.50
2019-02-28T09:56:34.427Z,7.60
2019-02-28T09:59:04.157Z,7.70
2019-02-28T10:01:33.964Z,7.90
2019-02-28T10:04:03.920Z,8.00
2019-02-28T10:06:51.499Z,8.10
2019-02-28T10:09:20.466Z,8.20
2019-02-28T10:11:50.248Z,8.30
2019-02-28T10:14:19.809Z,8.40
2019-02-28T10:17:07.893Z,8.50
2019-02-28T10:19:45.590Z,8.70
2019-02-28T10:22:10.145Z,8.80
2019-02-28T10:24:40.827Z,8.90
2019-02-28T10:27:10.721Z,9.00
2019-02-28T10:29:41.826Z,9.20
2019-02-28T10:32:11.796Z,9.40
2019-02-28T10:34:41.895Z,9.50
2019-02-28T10:37:11.453Z,9.70
2019-02-28T10:39:43.169Z,9.90
2019-02-28T10:42:12.364Z,10.10
2019-02-28T10:44:43.185Z,10.30
2019-02-28T10:47:13.460Z,10.40
2019-02-28T10:49:43.426Z,10.50
2019-02-28T10:52:13.100Z,10.70
2019-02-28T10:54:42.705Z,10.80
2019-02-28T10:57:12.961Z,11.00
2019-02-28T10:59:42.773Z,11.10
2019-02-28T11:02:18.960Z,11.20
2019-02-28T11:04:45.053Z,11.30
2019-02-28T11:07:14.760Z,11.40
2019-02-28T11:09:55.541Z,11.40
2019-02-28T11:12:26.284Z,11.50
2019-02-28T11:14:55.824Z,11.60
2019-02-28T11:17:25.485Z,11.60
2019-02-28T11:19:55.712Z,11.70
2019-02-28T11:22:25.311Z,11.90
2019-02-28T11:24:57.307Z,12.00
2019-02-28T11:27:26.520Z,12.10
2019-02-28T11:29:56.341Z,12.20
2019-02-28T11:32:26.411Z,12.30
2019-02-28T11:35:00.318Z,12.40
2019-02-28T11:37:37.758Z,12.50
2019-02-28T11:40:09.210Z,12.70
2019-02-28T11:42:39.265Z,12.90
2019-02-28T11:45:13.568Z,13.10
2019-02-28T11:47:43.787Z,13.20
2019-02-28T11:50:23.550Z,13.20
2019-02-28T11:52:53.652Z,13.30
2019-02-28T11:55:23.822Z,13.30
2019-02-28T11:57:53.991Z,13.30
2019-02-28T12:00:27.322Z,13.40
2019-02-28T12:03:00.699Z,13.40
2019-02-28T12:05:29.668Z,13.40
2019-02-28T12:07:59.313Z,13.40
2019-02-28T12:10:29.393Z,13.30
2019-02-28T12:12:59.276Z,13.30
2019-02-28T12:15:29.116Z,13.30
2019-02-28T12:18:03.366Z,13.30
2019-02-28T12:20:30.989Z,13.30
2019-02-28T12:23:00.626Z,13.30
2019-02-28T12:25:30.188Z,13.30
2019-02-28T12:28:02.763Z,13.40
2019-02-28T12:30:31.956Z,13.40
2019-02-28T12:33:01.639Z,13.50
2019-02-28T12:35:37.429Z,13.50
2019-02-28T12:38:02.991Z,13.70
2019-02-28T12:40:33.069Z,13.70
2019-02-28T12:43:05.436Z,13.80
2019-02-28T12:45:35.911Z,13.80
2019-02-28T12:48:05.985Z,13.90
2019-02-28T12:50:36.000Z,14.00
2019-02-28T12:53:05.680Z,14.10
2019-02-28T12:55:38.385Z,14.30
2019-02-28T12:58:07.618Z,14.50
2019-02-28T13:00:38.041Z,14.50
2019-02-28T13:03:09.257Z,14.60
2019-02-28T13:05:39.375Z,14.60
2019-02-28T13:08:09.228Z,14.60
2019-02-28T13:10:39.094Z,14.60
2019-02-28T13:13:08.657Z,14.60
2019-02-28T13:15:38.616Z,14.60
2019-02-28T13:18:09.487Z,14.60
2019-02-28T13:20:39.695Z,14.60
2019-02-28T13:23:09.531Z,14.60
2019-02-28T13:25:39.532Z,14.70
2019-02-28T13:28:09.271Z,14.70
2019-02-28T13:30:40.141Z,14.70
2019-02-28T13:33:11.088Z,14.70
2019-02-28T13:35:49.512Z,14.60
2019-02-28T13:38:19.836Z,14.60
2019-02-28T13:40:49.988Z,14.60
2019-02-28T13:43:22.401Z,14.80
2019-02-28T13:45:55.666Z,14.80
2019-02-28T13:48:26.030Z,14.80
2019-02-28T13:50:54.648Z,14.90
2019-02-28T13:53:33.331Z,14.90
2019-02-28T13:56:04.946Z,14.90
2019-02-28T13:58:34.359Z,14.90
2019-02-28T14:01:10.026Z,15.00
2019-02-28T14:03:42.351Z,15.10
2019-02-28T14:06:12.074Z,15.20
2019-02-28T14:08:46.411Z,15.30
2019-02-28T14:11:15.043Z,15.30
2019-02-28T14:13:44.730Z,15.30
2019-02-28T14:16:14.560Z,15.30
2019-02-28T14:18:45.438Z,15.30
2019-02-28T14:21:16.397Z,15.40
2019-02-28T14:23:46.208Z,15.40
2019-02-28T14:26:16.021Z,15.50
2019-02-28T14:28:45.593Z,15.70
2019-02-28T14:31:15.441Z,15.80
2019-02-28T14:33:45.023Z,15.80
2019-02-28T14:36:14.572Z,15.80
2019-02-28T14:38:54.921Z,15.70
2019-02-28T14:41:28.425Z,15.60
2019-02-28T14:43:56.965Z,15.60
2019-02-28T14:46:26.633Z,15.60
2019-02-28T14:48:56.511Z,15.60
2019-02-28T14:51:28.613Z,15.60
2019-02-28T14:53:58.284Z,15.60
2019-02-28T14:56:27.872Z,15.60
2019-02-28T14:58:58.001Z,15.60
2019-02-28T15:01:27.918Z,15.60
2019-02-28T15:04:07.762Z,15.60
2019-02-28T15:06:36.514Z,15.60
2019-02-28T15:09:14.121Z,15.60
2019-02-28T15:11:46.876Z,15.60
2019-02-28T15:14:15.722Z,15.50
2019-02-28T15:16:45.828Z,15.50
2019-02-28T15:19:15.457Z,15.40
2019-02-28T15:21:45.250Z,15.40
2019-02-28T15:24:14.916Z,15.30
2019-02-28T15:26:44.482Z,15.30
2019-02-28T15:29:14.377Z,15.30
2019-02-28T15:31:44.297Z,15.30
2019-02-28T15:34:14.060Z,15.20
2019-02-28T15:36:43.913Z,15.20
2019-02-28T15:39:17.052Z,15.20
2019-02-28T15:41:44.822Z,15.20
2019-02-28T15:44:14.424Z,15.20
2019-02-28T15:46:47.405Z,15.10
2019-02-28T15:49:15.564Z,15.10
2019-02-28T15:51:45.536Z,15.10
2019-02-28T15:54:15.465Z,15.10
2019-02-28T15:56:45.674Z,15.00
2019-02-28T15:59:15.659Z,15.00
2019-02-28T16:01:45.807Z,15.00
2019-02-28T16:04:15.443Z,15.00
2019-02-28T16:06:45.120Z,14.90
2019-02-28T16:09:18.849Z,14.90
2019-02-28T16:11:47.282Z,14.90
2019-02-28T16:14:17.000Z,14.90
2019-02-28T16:16:56.785Z,14.90
2019-02-28T16:19:27.101Z,14.80
2019-02-28T16:21:57.308Z,14.80
2019-02-28T16:24:26.947Z,14.80
2019-02-28T16:26:56.774Z,14.70
2019-02-28T16:29:27.570Z,14.70
2019-02-28T16:31:57.568Z,14.70
2019-02-28T16:34:27.440Z,14.70
2019-02-28T16:36:57.463Z,14.60
2019-02-28T16:39:28.684Z,14.60
2019-02-28T16:41:58.460Z,14.50
2019-02-28T16:44:30.922Z,14.50
2019-02-28T16:47:00.016Z,14.40
2019-02-28T16:49:29.600Z,14.40
2019-02-28T16:52:02.602Z,14.30
2019-02-28T16:54:30.708Z,14.20
2019-02-28T16:57:00.715Z,14.20
2019-02-28T16:59:31.556Z,14.30
2019-02-28T17:02:02.112Z,14.40
2019-02-28T17:04:31.981Z,14.50
2019-02-28T17:07:02.702Z,14.40
2019-02-28T17:09:37.928Z,14.20
2019-02-28T17:12:29.404Z,13.90
2019-02-28T17:14:58.999Z,13.50
2019-02-28T17:17:43.455Z,13.20
2019-02-28T17:20:13.028Z,12.90
2019-02-28T17:22:42.631Z,12.70
2019-02-28T17:25:14.095Z,12.50
2019-02-28T17:27:51.049Z,12.40
2019-02-28T17:30:43.517Z,12.20
2019-02-28T17:33:13.148Z,12.20
2019-02-28T17:35:42.708Z,12.10
2019-02-28T17:38:12.524Z,12.00
2019-02-28T17:40:42.112Z,12.00
2019-02-28T17:43:11.701Z,11.90
2019-02-28T17:45:41.258Z,11.90
2019-02-28T17:48:41.631Z,11.90
2019-02-28T17:52:04.391Z,11.90
2019-02-28T17:54:41.808Z,11.80
2019-02-28T17:57:44.497Z,11.70
2019-02-28T18:00:44.632Z,11.70
2019-02-28T18:03:48.495Z,11.60
2019-02-28T18:06:40.044Z,11.60
2019-02-28T18:09:48.215Z,11.60
2019-02-28T18:12:59.435Z,11.60
2019-02-28T18:16:01.708Z,11.60
2019-02-28T18:19:01.013Z,11.50
2019-02-28T18:22:27.006Z,11.50
2019-02-28T18:25:36.585Z,11.40
2019-02-28T18:28:47.656Z,11.40
2019-02-28T18:31:19.242Z,11.40
2019-02-28T18:34:01.690Z,11.30
2019-02-28T18:36:32.553Z,11.40
2019-02-28T18:39:04.313Z,11.40
2019-02-28T18:41:34.130Z,11.40
2019-02-28T18:44:05.075Z,11.40
2019-02-28T18:46:35.183Z,11.40
2019-02-28T18:49:05.881Z,11.30
2019-02-28T18:51:35.713Z,11.30
2019-02-28T18:54:08.767Z,11.20
2019-02-28T18:57:07.008Z,11.20
2019-02-28T18:59:36.918Z,11.20
2019-02-28T19:02:07.122Z,11.30
2019-02-28T19:04:54.708Z,11.30
2019-02-28T19:07:24.616Z,11.40
2019-02-28T19:09:54.244Z,11.40
2019-02-28T19:12:23.867Z,11.40
2019-02-28T19:14:53.425Z,11.40
2019-02-28T19:17:23.401Z,11.40
2019-02-28T19:20:00.059Z,11.40
2019-02-28T19:22:29.902Z,11.40
2019-02-28T19:24:59.797Z,11.30
2019-02-28T19:27:29.942Z,11.30
2019-02-28T19:29:59.924Z,11.30
2019-02-28T19:32:29.956Z,11.30
2019-02-28T19:34:59.853Z,11.30
2019-02-28T19:37:29.666Z,11.30
2019-02-28T19:39:59.473Z,11.30
2019-02-28T19:42:29.133Z,11.20
2019-02-28T19:44:59.301Z,11.20
2019-02-28T19:47:28.969Z,11.20
2019-02-28T19:49:58.932Z,11.20
2019-02-28T19:52:28.549Z,11.20
2019-02-28T19:54:58.093Z,11.20
2019-02-28T19:57:27.701Z,11.10
2019-02-28T19:59:57.672Z,11.10
2019-02-28T20:02:27.569Z,11.10
2019-02-28T20:04:57.780Z,11.00
2019-02-28T20:07:27.328Z,11.10
2019-02-28T20:09:56.977Z,11.10
2019-02-28T20:12:26.687Z,11.10
2019-02-28T20:14:56.372Z,11.20
2019-02-28T20:17:26.024Z,11.20
2019-02-28T20:19:55.880Z,11.20
2019-02-28T20:22:25.897Z,11.20
2019-02-28T20:24:55.873Z,11.20
2019-02-28T20:27:26.545Z,11.20
2019-02-28T20:29:56.727Z,11.20
2019-02-28T20:32:26.438Z,11.20
2019-02-28T20:34:56.247Z,11.10
2019-02-28T20:37:25.876Z,11.10
2019-02-28T20:39:55.722Z,11.10
2019-02-28T20:42:25.358Z,11.10
2019-02-28T20:44:55.483Z,11.10
2019-02-28T20:47:25.396Z,11.00
2019-02-28T20:49:55.289Z,10.90
2019-02-28T20:52:25.120Z,10.90
2019-02-28T20:54:54.933Z,10.80
2019-02-28T20:57:24.820Z,10.80
2019-02-28T20:59:54.383Z,10.70
2019-02-28T21:02:24.643Z,10.70
2019-02-28T21:04:54.293Z,10.70
2019-02-28T21:07:23.929Z,10.70
2019-02-28T21:09:53.536Z,10.80
2019-02-28T21:12:23.140Z,10.80
2019-02-28T21:14:52.698Z,10.70
2019-02-28T21:17:29.184Z,10.70
2019-02-28T21:19:54.269Z,10.80
2019-02-28T21:22:23.844Z,10.80
2019-02-28T21:24:53.464Z,10.80
2019-02-28T21:27:23.094Z,10.80
2019-02-28T21:29:52.897Z,10.80
2019-02-28T21:32:22.993Z,10.80
2019-02-28T21:34:53.215Z,10.80
2019-02-28T21:37:22.856Z,10.80
2019-02-28T21:39:52.657Z,10.90
2019-02-28T21:42:22.205Z,10.90
2019-02-28T21:44:52.376Z,10.90
2019-02-28T21:47:22.600Z,10.90
2019-02-28T21:49:52.256Z,10.90
2019-02-28T21:52:21.869Z,10.90
2019-02-28T21:54:57.579Z,10.80
2019-02-28T21:57:27.136Z,10.80
2019-02-28T21:59:57.137Z,10.80
2019-02-28T22:02:26.996Z,10.80
2019-02-28T22:04:56.564Z,10.80
2019-02-28T22:07:26.412Z,10.80
2019-02-28T22:09:56.080Z,10.80
2019-02-28T22:12:25.932Z,10.80
2019-02-28T22:14:55.832Z,10.80
2019-02-28T22:17:25.387Z,10.80
2019-02-28T22:19:54.941Z,10.70
2019-02-28T22:22:24.741Z,10.70
2019-02-28T22:24:54.590Z,10.70
2019-02-28T22:27:24.140Z,10.70
2019-02-28T22:29:53.709Z,10.70
2019-02-28T22:32:28.725Z,10.70
2019-02-28T22:35:13.592Z,10.70
2019-02-28T22:37:43.481Z,10.70
2019-02-28T22:40:13.033Z,10.70
2019-02-28T22:42:42.840Z,10.60
2019-02-28T22:45:12.588Z,10.60
2019-02-28T22:47:42.137Z,10.60
2019-02-28T22:50:12.163Z,10.60
2019-02-28T22:52:42.061Z,10.60
2019-02-28T22:55:11.769Z,10.50
2019-02-28T22:57:41.349Z,10.60
2019-02-28T23:00:21.944Z,10.60
2019-02-28T23:02:51.512Z,10.50
2019-02-28T23:05:21.073Z,10.50
2019-02-28T23:07:58.461Z,10.50
2019-02-28T23:10:28.024Z,10.50
2019-02-28T23:12:57.577Z,10.40
2019-02-28T23:15:27.125Z,10.50
2019-02-28T23:17:56.768Z,10.50
2019-02-28T23:20:26.665Z,10.50
2019-02-28T23:22:56.585Z,10.50
2019-02-28T23:25:26.153Z,10.50
2019-02-28T23:28:09.304Z,10.50
2019-02-28T23:31:27.236Z,10.50
2019-02-28T23:34:01.345Z,10.50
2019-02-28T23:36:30.146Z,10.50
2019-02-28T23:39:00.039Z,10.40
2019-02-28T23:41:29.812Z,10.40
2019-02-28T23:43:59.360Z,10.40
2019-02-28T23:46:29.188Z,10.40
2019-02-28T23:48:58.737Z,10.50
2019-02-28T23:51:28.606Z,10.50
2019-02-28T23:53:58.174Z,10.50
2019-02-28T23:56:27.725Z,10.50
2019-02-28T23:58:57.938Z,10.50
